createdAt,value
2023-02-16T00:00:26.785Z,163.38
2023-02-16T00:02:54.619Z,171.13
2023-02-16T00:05:29.806Z,117.82
2023-02-16T00:07:58.027Z,136.77
2023-02-16T00:10:26.649Z,143.75
2023-02-16T00:13:12.735Z,164.95
2023-02-16T00:15:41.418Z,143.45
2023-02-16T00:18:18.054Z,115.20
2023-02-16T00:20:46.928Z,117.18
2023-02-16T00:23:14.705Z,118.25
2023-02-16T00:25:42.773Z,93.07
2023-02-16T00:28:20.284Z,124.25
2023-02-16T00:30:48.586Z,141.75
2023-02-16T00:33:17.284Z,125.63
2023-02-16T00:35:45.609Z,127.72
2023-02-16T00:38:14.082Z,72.75
2023-02-16T00:40:42.564Z,137.13
2023-02-16T00:43:40.697Z,140.65
2023-02-16T00:46:09.380Z,154.40
2023-02-16T00:48:37.778Z,190.35
2023-02-16T00:51:20.332Z,140.45
2023-02-16T00:53:53.137Z,181.23
2023-02-16T00:56:21.514Z,211.23
2023-02-16T00:58:51.107Z,113.18
2023-02-16T01:01:19.295Z,51.00
2023-02-16T01:03:48.794Z,167.25
2023-02-16T01:06:35.525Z,211.20
2023-02-16T01:09:36.341Z,163.77
2023-02-16T01:12:06.137Z,216.52
2023-02-16T01:14:36.957Z,266.20
2023-02-16T01:17:04.899Z,178.02
2023-02-16T01:19:32.637Z,179.63
2023-02-16T01:22:00.714Z,231.70
2023-02-16T01:24:29.323Z,118.68
2023-02-16T01:26:57.488Z,128.27
2023-02-16T01:29:25.571Z,188.85
2023-02-16T01:31:54.071Z,141.88
2023-02-16T01:34:22.284Z,186.13
2023-02-16T01:36:50.204Z,120.75
2023-02-16T01:39:19.533Z,143.98
2023-02-16T01:42:24.435Z,167.98
2023-02-16T01:44:53.901Z,70.38
2023-02-16T01:47:43.114Z,57.65
2023-02-16T01:50:28.370Z,175.85
2023-02-16T01:52:57.845Z,116.85
2023-02-16T01:55:37.595Z,83.93
2023-02-16T01:58:14.576Z,27.67
2023-02-16T02:00:57.121Z,172.65
2023-02-16T02:03:54.177Z,147.73
2023-02-16T02:06:24.454Z,119.65
2023-02-16T02:08:57.470Z,168.10
2023-02-16T02:11:47.584Z,81.00
2023-02-16T02:14:21.226Z,62.80
2023-02-16T02:17:00.463Z,179.30
2023-02-16T02:19:31.336Z,140.00
2023-02-16T02:22:46.137Z,155.80
2023-02-16T02:25:45.776Z,109.72
2023-02-16T02:28:31.844Z,185.02
2023-02-16T02:31:11.553Z,142.52
2023-02-16T02:34:18.860Z,233.23
2023-02-16T02:36:52.103Z,159.30
2023-02-16T02:39:47.034Z,168.95
2023-02-16T02:42:17.301Z,152.00
2023-02-16T02:44:58.166Z,310.15
2023-02-16T02:47:38.485Z,295.38
2023-02-16T02:50:35.974Z,244.38
2023-02-16T02:53:08.370Z,303.77
2023-02-16T02:55:56.242Z,317.20
2023-02-16T02:58:43.319Z,189.50
2023-02-16T03:01:12.737Z,313.52
2023-02-16T03:03:49.702Z,234.32
2023-02-16T03:06:26.954Z,288.02
2023-02-16T03:09:03.485Z,203.70
2023-02-16T03:11:49.793Z,279.58
2023-02-16T03:14:38.144Z,288.55
2023-02-16T03:17:35.422Z,287.55
2023-02-16T03:20:26.712Z,315.08
2023-02-16T03:23:13.267Z,237.63
2023-02-16T03:25:59.530Z,250.25
2023-02-16T03:28:47.928Z,261.10
2023-02-16T03:31:19.942Z,286.90
2023-02-16T03:33:48.527Z,292.02
2023-02-16T03:36:16.833Z,170.85
2023-02-16T03:38:45.066Z,240.50
2023-02-16T03:41:13.037Z,236.65
2023-02-16T03:43:40.867Z,239.80
2023-02-16T03:46:08.631Z,250.80
2023-02-16T03:48:36.587Z,228.70
2023-02-16T03:51:04.864Z,237.40
2023-02-16T03:53:32.796Z,244.63
2023-02-16T03:56:01.402Z,173.73
2023-02-16T03:58:31.058Z,205.60
2023-02-16T04:00:59.302Z,189.23
2023-02-16T04:03:27.626Z,231.77
2023-02-16T04:05:56.839Z,159.50
2023-02-16T04:08:24.553Z,167.43
2023-02-16T04:10:52.560Z,163.23
2023-02-16T04:13:20.543Z,175.30
2023-02-16T04:15:48.415Z,154.73
2023-02-16T04:18:16.489Z,166.05
2023-02-16T04:20:44.583Z,172.93
2023-02-16T04:23:13.024Z,198.10
2023-02-16T04:25:41.089Z,165.52
2023-02-16T04:28:09.048Z,144.95
2023-02-16T04:30:37.733Z,168.18
2023-02-16T04:33:05.679Z,121.63
2023-02-16T04:35:33.722Z,190.70
2023-02-16T04:38:02.019Z,200.48
2023-02-16T04:40:30.080Z,189.55
2023-02-16T04:42:58.175Z,180.75
2023-02-16T04:45:26.452Z,175.35
2023-02-16T04:47:54.608Z,175.35
2023-02-16T04:50:23.091Z,183.48
2023-02-16T04:52:51.071Z,165.90
2023-02-16T04:55:19.320Z,187.15
2023-02-16T04:57:47.171Z,174.05
2023-02-16T05:00:15.731Z,176.57
2023-02-16T05:02:43.693Z,175.48
2023-02-16T05:05:11.401Z,183.60
2023-02-16T05:07:39.439Z,180.27
2023-02-16T05:10:07.638Z,153.63
2023-02-16T05:12:53.782Z,157.38
2023-02-16T05:15:22.276Z,183.20
2023-02-16T05:17:50.163Z,139.70
2023-02-16T05:20:18.357Z,167.63
2023-02-16T05:22:46.763Z,92.30
2023-02-16T05:25:14.626Z,159.52
2023-02-16T05:27:42.617Z,147.63
2023-02-16T05:30:11.362Z,165.88
2023-02-16T05:32:39.489Z,111.93
2023-02-16T05:35:07.283Z,157.80
2023-02-16T05:37:35.235Z,147.55
2023-02-16T05:40:03.624Z,111.88
2023-02-16T05:42:31.909Z,144.52
2023-02-16T05:44:59.901Z,147.90
2023-02-16T05:47:28.246Z,127.95
2023-02-16T05:49:56.334Z,114.60
2023-02-16T05:52:24.219Z,145.63
2023-02-16T05:54:52.467Z,119.78
2023-02-16T05:57:21.059Z,77.50
2023-02-16T05:59:48.798Z,138.77
2023-02-16T06:02:17.168Z,120.28
2023-02-16T06:04:44.952Z,109.90
2023-02-16T06:07:14.837Z,109.78
2023-02-16T06:09:42.794Z,126.70
2023-02-16T06:12:10.528Z,86.47
2023-02-16T06:14:38.765Z,45.63
2023-02-16T06:17:06.482Z,134.27
2023-02-16T06:19:34.297Z,164.00
2023-02-16T06:22:02.142Z,157.55
2023-02-16T06:24:30.139Z,155.90
2023-02-16T06:26:58.285Z,138.73
2023-02-16T06:29:28.253Z,183.93
2023-02-16T06:31:56.660Z,154.05
2023-02-16T06:34:24.736Z,107.40
2023-02-16T06:36:52.448Z,143.65
2023-02-16T06:39:20.674Z,148.15
2023-02-16T06:41:49.075Z,123.88
2023-02-16T06:44:17.454Z,110.82
2023-02-16T06:46:46.830Z,126.53
2023-02-16T06:49:17.180Z,132.85
2023-02-16T06:51:45.309Z,174.20
2023-02-16T06:54:13.409Z,103.80
2023-02-16T06:56:41.333Z,161.38
2023-02-16T06:59:09.455Z,129.80
2023-02-16T07:01:37.529Z,86.28
2023-02-16T07:04:05.346Z,119.93
2023-02-16T07:06:33.414Z,155.35
2023-02-16T07:09:01.476Z,104.03
2023-02-16T07:11:29.709Z,126.50
2023-02-16T07:13:57.527Z,119.18
2023-02-16T07:16:25.934Z,127.75
2023-02-16T07:18:54.060Z,127.28
2023-02-16T07:21:22.334Z,130.65
2023-02-16T07:23:50.552Z,140.85
2023-02-16T07:26:18.269Z,154.38
2023-02-16T07:28:46.244Z,91.45
2023-02-16T07:31:15.540Z,94.72
2023-02-16T07:33:44.003Z,162.80
2023-02-16T07:36:14.686Z,96.95
2023-02-16T07:38:43.056Z,87.25
2023-02-16T07:41:11.475Z,139.00
2023-02-16T07:43:39.772Z,127.65
2023-02-16T07:46:07.966Z,127.82
2023-02-16T07:48:36.508Z,123.68
2023-02-16T07:51:04.755Z,100.13
2023-02-16T07:53:32.989Z,92.70
2023-02-16T07:56:01.115Z,143.65
2023-02-16T07:58:29.232Z,165.30
2023-02-16T08:01:08.478Z,124.82
2023-02-16T08:03:36.291Z,152.32
2023-02-16T08:06:04.787Z,137.38
2023-02-16T08:08:32.975Z,139.27
2023-02-16T08:11:01.088Z,101.00
2023-02-16T08:13:28.857Z,92.15
2023-02-16T08:15:56.663Z,117.40
2023-02-16T08:18:24.479Z,116.68
2023-02-16T08:21:03.742Z,122.82
2023-02-16T08:23:32.583Z,118.88
2023-02-16T08:26:00.649Z,108.22
2023-02-16T08:28:30.466Z,127.60
2023-02-16T08:30:58.610Z,133.35
2023-02-16T08:33:26.463Z,134.82
2023-02-16T08:35:54.293Z,95.85
2023-02-16T08:38:23.212Z,138.73
2023-02-16T08:40:51.518Z,122.53
2023-02-16T08:43:19.368Z,125.63
2023-02-16T08:45:48.330Z,148.25
2023-02-16T08:48:17.062Z,115.20
2023-02-16T08:50:54.086Z,153.73
2023-02-16T08:53:23.525Z,153.27
2023-02-16T08:55:55.987Z,165.27
2023-02-16T08:58:24.457Z,99.03
2023-02-16T09:00:52.617Z,155.52
2023-02-16T09:03:20.621Z,110.82
2023-02-16T09:05:53.320Z,174.48
2023-02-16T09:08:22.119Z,160.95
2023-02-16T09:10:50.093Z,143.38
2023-02-16T09:13:18.300Z,179.52
2023-02-16T09:15:46.197Z,199.88
2023-02-16T09:18:14.920Z,164.95
2023-02-16T09:20:46.428Z,185.25
2023-02-16T09:23:14.970Z,145.00
2023-02-16T09:25:43.262Z,187.38
2023-02-16T09:28:11.357Z,184.45
2023-02-16T09:30:39.999Z,189.27
2023-02-16T09:33:08.167Z,171.90
2023-02-16T09:35:40.116Z,168.98
2023-02-16T09:38:08.674Z,189.23
2023-02-16T09:40:38.127Z,176.55
2023-02-16T09:43:07.309Z,187.05
2023-02-16T09:45:42.210Z,165.48
2023-02-16T09:48:31.689Z,219.15
2023-02-16T09:51:00.325Z,184.43
2023-02-16T09:53:38.347Z,179.55
2023-02-16T09:56:14.996Z,141.05
2023-02-16T09:58:48.968Z,171.18
2023-02-16T10:01:24.127Z,194.20
2023-02-16T10:04:24.398Z,144.82
2023-02-16T10:07:17.511Z,172.93
2023-02-16T10:09:47.928Z,151.88
2023-02-16T10:12:26.990Z,142.73
2023-02-16T10:15:01.192Z,152.07
2023-02-16T10:17:41.134Z,141.73
2023-02-16T10:20:18.429Z,142.07
2023-02-16T10:22:47.047Z,164.60
2023-02-16T10:25:21.183Z,143.57
2023-02-16T10:27:52.304Z,135.65
2023-02-16T10:30:21.961Z,156.23
2023-02-16T10:33:28.721Z,138.05
2023-02-16T10:36:02.101Z,101.45
2023-02-16T10:38:59.354Z,83.75
2023-02-16T10:41:33.553Z,93.47
2023-02-16T10:44:12.881Z,118.85
2023-02-16T10:46:47.002Z,120.53
2023-02-16T10:49:15.748Z,108.95
2023-02-16T10:51:49.020Z,118.88
2023-02-16T10:54:28.805Z,88.40
2023-02-16T10:57:01.781Z,112.88
2023-02-16T10:59:38.533Z,103.10
2023-02-16T11:02:28.418Z,124.13
2023-02-16T11:04:57.569Z,102.97
2023-02-16T11:07:27.363Z,118.97
2023-02-16T11:09:57.612Z,100.70
2023-02-16T11:12:34.655Z,110.22
2023-02-16T11:15:22.445Z,131.68
2023-02-16T11:17:55.545Z,116.05
2023-02-16T11:20:33.286Z,126.18
2023-02-16T11:23:23.322Z,124.50
2023-02-16T11:26:04.605Z,124.55
2023-02-16T11:28:34.613Z,128.55
2023-02-16T11:31:24.680Z,130.35
2023-02-16T11:34:32.948Z,122.90
2023-02-16T11:37:07.790Z,132.10
2023-02-16T11:39:38.157Z,105.75
2023-02-16T11:42:19.120Z,115.45
2023-02-16T11:44:52.531Z,137.85
2023-02-16T11:47:24.970Z,161.30
2023-02-16T11:52:39.379Z,143.30
2023-02-16T11:55:18.969Z,107.32
2023-02-16T11:57:47.928Z,105.88
2023-02-16T12:00:22.507Z,101.32
2023-02-16T12:03:06.995Z,102.95
2023-02-16T12:05:39.658Z,94.45
2023-02-16T12:11:15.290Z,91.97
2023-02-16T12:13:59.573Z,125.53
2023-02-16T12:16:54.185Z,144.45
2023-02-16T12:19:28.818Z,110.60
2023-02-16T12:22:22.314Z,110.70
2023-02-16T12:24:54.073Z,118.88
2023-02-16T12:27:43.023Z,127.35
2023-02-16T12:30:24.847Z,115.65
2023-02-16T12:33:34.209Z,100.43
2023-02-16T12:36:24.610Z,128.55
2023-02-16T12:39:01.422Z,111.40
2023-02-16T12:41:56.874Z,134.25
2023-02-16T12:44:49.356Z,106.40
2023-02-16T12:47:25.420Z,115.05
2023-02-16T12:49:59.606Z,113.28
2023-02-16T12:52:41.573Z,97.60
2023-02-16T12:55:30.356Z,119.60
2023-02-16T12:58:16.758Z,120.82
2023-02-16T13:01:00.492Z,112.38
2023-02-16T13:03:39.831Z,116.50
2023-02-16T13:06:45.284Z,109.57
2023-02-16T13:09:38.359Z,131.75
2023-02-16T13:12:38.653Z,123.50
2023-02-16T13:15:28.454Z,132.25
2023-02-16T13:17:58.936Z,103.50
2023-02-16T13:20:26.888Z,111.60
2023-02-16T13:22:57.667Z,119.75
2023-02-16T13:25:43.725Z,124.45
2023-02-16T13:28:44.412Z,136.57
2023-02-16T13:31:50.257Z,123.85
2023-02-16T13:34:29.598Z,129.32
2023-02-16T13:37:19.308Z,145.07
2023-02-16T13:40:10.677Z,191.73
2023-02-16T13:42:57.880Z,209.80
2023-02-16T13:45:31.478Z,189.90
2023-02-16T13:47:59.479Z,195.68
2023-02-16T13:50:33.626Z,198.60
2023-02-16T13:53:19.557Z,248.93
2023-02-16T13:55:48.454Z,247.18
2023-02-16T13:58:19.196Z,213.43
2023-02-16T14:00:48.612Z,236.52
2023-02-16T14:03:21.574Z,184.90
2023-02-16T14:05:53.812Z,203.68
2023-02-16T14:08:28.918Z,168.85
2023-02-16T14:11:05.979Z,207.20
2023-02-16T14:13:39.732Z,188.50
2023-02-16T14:16:23.193Z,167.55
2023-02-16T14:19:17.251Z,182.82
2023-02-16T14:21:49.523Z,201.05
2023-02-16T14:24:26.483Z,298.08
2023-02-16T14:26:57.104Z,300.77
2023-02-16T14:29:31.961Z,309.80
2023-02-16T14:32:08.098Z,452.52
2023-02-16T14:34:41.909Z,420.38
2023-02-16T14:37:16.916Z,436.15
2023-02-16T14:40:06.443Z,472.45
2023-02-16T14:42:35.422Z,465.75
2023-02-16T14:45:06.370Z,528.60
2023-02-16T14:47:43.282Z,520.35
2023-02-16T14:50:42.336Z,543.13
2023-02-16T14:53:42.678Z,610.13
2023-02-16T14:56:50.813Z,633.67
2023-02-16T15:00:05.663Z,654.88
2023-02-16T15:02:39.616Z,747.83
2023-02-16T15:05:23.482Z,1255.75
2023-02-16T15:08:24.720Z,826.72
2023-02-16T15:10:55.742Z,785.15
2023-02-16T15:13:32.047Z,618.85
2023-02-16T15:16:02.665Z,859.50
2023-02-16T15:18:39.875Z,827.75
2023-02-16T15:21:08.190Z,902.65
2023-02-16T15:23:37.315Z,915.78
2023-02-16T15:26:17.489Z,860.28
2023-02-16T15:28:51.248Z,860.00
2023-02-16T15:31:19.465Z,847.95
2023-02-16T15:33:56.446Z,779.20
2023-02-16T15:36:35.812Z,740.65
2023-02-16T15:39:14.887Z,765.03
2023-02-16T15:41:48.009Z,707.80
2023-02-16T15:44:35.575Z,655.03
2023-02-16T15:47:26.828Z,673.20
2023-02-16T15:49:55.448Z,710.22
2023-02-16T15:52:36.291Z,693.28
2023-02-16T15:55:06.785Z,674.13
2023-02-16T15:57:39.265Z,727.47
2023-02-16T16:00:23.954Z,721.65
2023-02-16T16:02:56.451Z,527.33
2023-02-16T16:05:41.202Z,589.20
2023-02-16T16:08:13.529Z,523.42
2023-02-16T16:10:42.569Z,467.48
2023-02-16T16:13:14.078Z,431.08
2023-02-16T16:15:44.591Z,296.80
2023-02-16T16:18:43.737Z,458.85
2023-02-16T16:21:38.125Z,449.13
2023-02-16T16:24:08.045Z,404.38
2023-02-16T16:26:53.204Z,402.85
2023-02-16T16:29:30.867Z,441.90
2023-02-16T16:31:58.840Z,441.45
2023-02-16T16:34:39.387Z,375.05
2023-02-16T16:37:19.357Z,230.98
2023-02-16T16:39:56.936Z,356.75
2023-02-16T16:42:25.238Z,257.50
2023-02-16T16:44:59.029Z,288.08
2023-02-16T16:47:34.337Z,348.13
2023-02-16T16:50:15.525Z,290.63
2023-02-16T16:52:46.628Z,417.33
2023-02-16T16:55:23.852Z,410.42
2023-02-16T16:57:54.008Z,452.58
2023-02-16T17:00:22.932Z,444.58
2023-02-16T17:02:50.915Z,433.63
2023-02-16T17:05:19.604Z,305.80
2023-02-16T17:07:50.837Z,283.23
2023-02-16T17:10:20.239Z,350.13
2023-02-16T17:12:49.984Z,386.50
2023-02-16T17:15:45.806Z,393.08
2023-02-16T17:18:18.236Z,409.48
2023-02-16T17:20:46.205Z,327.73
2023-02-16T17:23:17.967Z,176.98
2023-02-16T17:25:46.188Z,284.27
2023-02-16T17:28:14.446Z,292.50
2023-02-16T17:30:42.810Z,267.95
2023-02-16T17:33:10.917Z,363.95
2023-02-16T17:35:40.744Z,282.40
2023-02-16T17:38:20.063Z,288.48
2023-02-16T17:40:51.060Z,101.47
2023-02-16T17:43:19.304Z,205.03
2023-02-16T17:45:47.660Z,194.90
2023-02-16T17:48:28.298Z,210.30
2023-02-16T17:51:03.513Z,147.73
2023-02-16T17:53:32.085Z,228.77
2023-02-16T17:56:03.834Z,230.05
2023-02-16T17:58:32.178Z,337.27
2023-02-16T18:01:00.234Z,400.33
2023-02-16T18:03:28.241Z,419.75
2023-02-16T18:05:57.716Z,413.77
2023-02-16T18:08:25.914Z,378.35
2023-02-16T18:10:54.839Z,437.08
2023-02-16T18:13:22.739Z,395.75
2023-02-16T18:15:54.463Z,463.48
2023-02-16T18:18:23.035Z,427.10
2023-02-16T18:20:50.894Z,433.13
2023-02-16T18:23:18.982Z,473.63
2023-02-16T18:25:46.678Z,415.90
2023-02-16T18:28:21.632Z,216.13
2023-02-16T18:30:50.858Z,347.13
2023-02-16T18:33:21.666Z,376.15
2023-02-16T18:35:54.291Z,374.50
2023-02-16T18:38:22.668Z,426.42
2023-02-16T18:40:51.036Z,425.88
2023-02-16T18:43:19.750Z,429.65
2023-02-16T18:45:48.987Z,385.52
2023-02-16T18:48:16.779Z,387.48
2023-02-16T18:50:45.122Z,381.20
2023-02-16T18:53:13.958Z,339.73
2023-02-16T18:55:42.334Z,245.40
2023-02-16T18:58:11.533Z,319.85
2023-02-16T19:00:39.568Z,341.02
2023-02-16T19:03:07.827Z,266.85
2023-02-16T19:05:35.494Z,382.52
2023-02-16T19:08:03.364Z,429.85
2023-02-16T19:10:31.538Z,315.77
2023-02-16T19:13:01.316Z,261.05
2023-02-16T19:15:30.109Z,406.05
2023-02-16T19:17:57.836Z,298.85
2023-02-16T19:20:26.155Z,218.73
2023-02-16T19:22:54.732Z,381.52
2023-02-16T19:25:22.702Z,342.45
2023-02-16T19:27:50.758Z,378.05
2023-02-16T19:30:21.360Z,402.88
2023-02-16T19:32:49.511Z,354.05
2023-02-16T19:35:18.273Z,330.40
2023-02-16T19:37:46.030Z,248.23
2023-02-16T19:40:14.656Z,345.65
2023-02-16T19:42:42.474Z,387.23
2023-02-16T19:45:10.317Z,320.48
2023-02-16T19:47:38.357Z,319.88
2023-02-16T19:50:06.998Z,345.05
2023-02-16T19:52:34.738Z,399.83
2023-02-16T19:55:03.206Z,350.50
2023-02-16T19:57:31.077Z,369.85
2023-02-16T19:59:58.857Z,357.92
2023-02-16T20:02:26.701Z,357.13
2023-02-16T20:04:55.338Z,354.27
2023-02-16T20:07:23.324Z,347.92
2023-02-16T20:09:51.134Z,332.42
2023-02-16T20:12:18.839Z,332.75
2023-02-16T20:14:46.800Z,313.80
2023-02-16T20:17:14.488Z,332.83
2023-02-16T20:19:42.386Z,346.00
2023-02-16T20:22:10.363Z,364.70
2023-02-16T20:24:39.448Z,335.88
2023-02-16T20:27:07.198Z,352.75
2023-02-16T20:29:35.190Z,337.63
2023-02-16T20:32:03.702Z,304.67
2023-02-16T20:34:31.608Z,266.05
2023-02-16T20:36:59.609Z,359.85
2023-02-16T20:39:27.720Z,277.77
2023-02-16T20:41:55.519Z,321.02
2023-02-16T20:44:23.632Z,271.75
2023-02-16T20:46:51.584Z,324.23
2023-02-16T20:49:19.395Z,348.85
2023-02-16T20:51:47.316Z,308.05
2023-02-16T20:54:15.487Z,295.50
2023-02-16T20:56:43.505Z,285.38
2023-02-16T20:59:11.716Z,195.75
2023-02-16T21:01:44.014Z,257.55
2023-02-16T21:04:12.068Z,337.73
2023-02-16T21:06:39.931Z,315.90
2023-02-16T21:09:08.881Z,328.02
2023-02-16T21:11:37.928Z,294.00
2023-02-16T21:14:06.355Z,299.45
2023-02-16T21:16:34.879Z,214.45
2023-02-16T21:19:07.238Z,293.20
2023-02-16T21:21:41.569Z,264.98
2023-02-16T21:24:10.023Z,193.23
2023-02-16T21:26:37.806Z,269.30
2023-02-16T21:29:05.948Z,340.52
2023-02-16T21:31:33.812Z,310.23
2023-02-16T21:34:01.935Z,281.15
2023-02-16T21:36:30.047Z,109.40
2023-02-16T21:38:58.201Z,121.82
2023-02-16T21:41:29.293Z,306.92
2023-02-16T21:44:02.026Z,138.00
2023-02-16T21:46:34.580Z,158.30
2023-02-16T21:49:03.030Z,123.40
2023-02-16T21:51:32.444Z,238.50
2023-02-16T21:54:00.359Z,95.95
2023-02-16T21:56:49.176Z,283.33
2023-02-16T21:59:22.989Z,271.40
2023-02-16T22:01:51.755Z,333.08
2023-02-16T22:04:21.529Z,286.15
2023-02-16T22:06:50.163Z,223.60
2023-02-16T22:09:19.516Z,303.10
2023-02-16T22:11:47.733Z,260.98
2023-02-16T22:14:15.803Z,274.50
2023-02-16T22:16:44.831Z,206.32
2023-02-16T22:19:13.773Z,273.65
2023-02-16T22:21:43.183Z,277.00
2023-02-16T22:24:15.124Z,228.25
2023-02-16T22:26:43.577Z,228.68
2023-02-16T22:29:11.352Z,207.50
2023-02-16T22:31:39.742Z,214.65
2023-02-16T22:34:08.608Z,154.45
2023-02-16T22:36:36.854Z,202.82
2023-02-16T22:39:05.209Z,141.90
2023-02-16T22:41:33.565Z,281.35
2023-02-16T22:44:01.555Z,227.82
2023-02-16T22:46:29.887Z,179.88
2023-02-16T22:49:02.280Z,295.58
2023-02-16T22:51:30.993Z,137.57
2023-02-16T22:53:59.965Z,211.85
2023-02-16T22:56:28.237Z,231.50
2023-02-16T22:58:57.637Z,262.23
2023-02-16T23:01:26.594Z,124.85
2023-02-16T23:03:59.502Z,131.50
2023-02-16T23:06:29.220Z,177.52
2023-02-16T23:08:59.003Z,247.23
2023-02-16T23:11:27.330Z,257.40
2023-02-16T23:13:55.382Z,241.05
2023-02-16T23:16:24.833Z,276.45
2023-02-16T23:18:53.281Z,218.63
2023-02-16T23:21:28.492Z,235.13
2023-02-16T23:23:57.229Z,211.35
2023-02-16T23:26:26.056Z,267.38
2023-02-16T23:28:55.352Z,261.58
2023-02-16T23:31:23.868Z,138.00
2023-02-16T23:33:52.006Z,248.77
2023-02-16T23:36:20.121Z,270.00
2023-02-16T23:38:48.128Z,203.20
2023-02-16T23:41:16.788Z,212.57
2023-02-16T23:43:44.923Z,172.82
2023-02-16T23:46:13.137Z,268.38
2023-02-16T23:48:41.117Z,232.38
2023-02-16T23:51:11.109Z,256.63
2023-02-16T23:53:39.786Z,176.63
2023-02-16T23:56:08.388Z,227.23
2023-02-16T23:58:43.362Z,232.35
